Time;durP1;ratioP1;P1;durP2;ratioP2;P2;SDS_P1;SDS_P2;PMS_P1;PMS_P2;Temp;Humidity;BMP_temperature;BMP_pressure;BME280_temperature;BME280_humidity;BME280_pressure;Samples;Min_cycle;Max_cycle;Signal;HPM_P1;HPM_P2
2022/12/05 00:01:42;;;;;;;48.20;26.90;;;-4.60;99.90;;;;;;5016193;28;20434;-76
2022/12/05 00:04:12;;;;;;;37.07;23.50;;;-5.90;99.90;;;;;;5015576;28;20445;-76
2022/12/05 00:06:40;;;;;;;48.23;25.87;;;-5.90;99.90;;;;;;5028623;28;20435;-74
2022/12/05 00:09:07;;;;;;;39.83;24.50;;;-4.80;99.90;;;;;;5016646;28;20488;-76
2022/12/05 00:11:35;;;;;;;46.77;24.30;;;-6.20;99.90;;;;;;5015922;28;20473;-74
2022/12/05 00:14:03;;;;;;;41.20;24.37;;;-6.60;99.90;;;;;;5016128;28;20434;-76
2022/12/05 00:16:31;;;;;;;43.07;24.03;;;-6.30;99.90;;;;;;5016781;28;20437;-79
2022/12/05 00:19:01;;;;;;;44.50;23.77;;;-6.30;99.90;;;;;;5016127;28;20411;-76
2022/12/05 00:21:29;;;;;;;41.57;23.60;;;-7.00;99.90;;;;;;5022245;28;20418;-77
2022/12/05 00:23:56;;;;;;;42.87;23.83;;;-7.10;99.90;;;;;;5015871;28;20710;-79
2022/12/05 00:26:22;;;;;;;42.00;23.17;;;-6.80;99.90;;;;;;5015924;28;20466;-81
2022/12/05 00:28:49;;;;;;;41.83;26.20;;;-5.90;99.90;;;;;;5029034;28;20435;-76
2022/12/05 00:31:17;;;;;;;47.50;24.60;;;-6.40;99.90;;;;;;5015576;28;20442;-75
2022/12/05 00:33:44;;;;;;;44.43;25.47;;;-5.50;99.90;;;;;;5015919;28;20423;-85
2022/12/05 00:36:13;;;;;;;46.07;24.40;;;-6.90;99.90;;;;;;5017019;28;20422;-85
2022/12/05 00:38:40;;;;;;;43.03;23.70;;;-6.70;99.90;;;;;;5019798;28;20730;-82
2022/12/05 00:41:08;;;;;;;39.90;23.17;;;-5.10;99.90;;;;;;5016118;28;20457;-83
2022/12/05 00:43:34;;;;;;;37.10;22.53;;;-6.70;99.90;;;;;;5015575;28;20418;-84
2022/12/05 00:46:11;;;;;;;48.40;23.20;;;-6.60;99.90;;;;;;5015521;28;20434;-85
2022/12/05 00:48:37;;;;;;;34.93;20.97;;;-6.70;99.90;;;;;;5016051;28;20434;-83
2022/12/05 00:51:07;;;;;;;40.17;22.27;;;-6.60;99.90;;;;;;5024781;28;20534;-85
2022/12/05 00:53:34;;;;;;;42.17;21.70;;;-6.70;99.90;;;;;;5016166;28;20197;-85
2022/12/05 00:56:14;;;;;;;38.10;21.10;;;-6.60;99.90;;;;;;5016001;28;20429;-85
2022/12/05 00:58:41;;;;;;;36.80;22.93;;;-6.30;99.90;;;;;;5015514;28;20445;-85
2022/12/05 01:01:17;;;;;;;37.63;22.57;;;-7.00;99.90;;;;;;5016213;28;20477;-84
2022/12/05 01:03:44;;;;;;;37.80;20.47;;;-6.70;99.90;;;;;;5015228;28;20446;-82
2022/12/05 01:06:12;;;;;;;40.27;22.97;;;-8.00;99.90;;;;;;5015528;28;20430;-73
2022/12/05 01:08:38;;;;;;;39.53;21.50;;;-7.30;99.90;;;;;;5015334;28;20426;-75
2022/12/05 01:11:05;;;;;;;42.67;22.13;;;-5.00;99.90;;;;;;5023328;28;20516;-75
2022/12/05 01:13:32;;;;;;;40.87;21.53;;;-7.20;99.90;;;;;;5015138;28;20177;-75
2022/12/05 01:15:58;;;;;;;37.53;20.80;;;-7.00;99.90;;;;;;5015486;28;20438;-77
2022/12/05 01:18:25;;;;;;;32.03;21.43;;;-5.40;99.90;;;;;;5015944;28;20423;-87
2022/12/05 01:20:51;;;;;;;36.23;20.43;;;-7.20;99.90;;;;;;5024048;28;20934;-87
2022/12/05 01:23:18;;;;;;;36.47;19.73;;;-7.10;99.90;;;;;;5018101;28;20873;-85
2022/12/05 01:25:46;;;;;;;37.23;22.10;;;-6.90;99.90;;;;;;5017417;28;20493;-84
2022/12/05 01:28:13;;;;;;;32.13;18.47;;;-7.10;99.90;;;;;;5023034;28;20442;-84
2022/12/05 01:30:40;;;;;;;35.20;20.30;;;-7.00;99.90;;;;;;5015715;28;20758;-83
2022/12/05 01:33:12;;;;;;;35.73;20.30;;;-6.50;99.90;;;;;;5016711;28;20423;-89
2022/12/05 01:35:40;;;;;;;36.03;21.63;;;-6.60;99.90;;;;;;5017787;28;20438;-75
2022/12/05 01:38:07;;;;;;;33.37;20.67;;;-6.80;99.90;;;;;;5015822;28;20419;-76
2022/12/05 01:40:37;;;;;;;34.67;22.50;;;-8.80;99.90;;;;;;5015121;28;20486;-75
2022/12/05 01:43:05;;;;;;;36.43;19.97;;;-6.70;99.90;;;;;;5028026;28;20433;-75
2022/12/05 01:45:39;;;;;;;29.10;17.80;;;-6.80;99.90;;;;;;5014902;28;20427;-77
2022/12/05 01:48:21;;;;;;;33.30;19.80;;;-6.40;99.90;;;;;;5020427;28;20419;-77
2022/12/05 01:50:48;;;;;;;33.33;20.07;;;-6.60;99.90;;;;;;5015608;28;20458;-86
2022/12/05 01:53:16;;;;;;;43.17;18.43;;;-6.60;99.90;;;;;;5015500;28;20509;-85
2022/12/05 01:55:43;;;;;;;33.17;18.93;;;-5.00;99.90;;;;;;5021645;28;20430;-85
2022/12/05 01:58:10;;;;;;;34.97;18.67;;;-6.70;99.90;;;;;;5023223;28;20431;-81
2022/12/05 02:00:38;;;;;;;41.77;20.10;;;-4.20;99.90;;;;;;5028703;28;20555;-87
2022/12/05 02:03:07;;;;;;;45.10;20.10;;;-6.20;99.90;;;;;;5029887;28;20490;-89
2022/12/05 02:05:35;;;;;;;34.90;20.03;;;-5.70;99.90;;;;;;5023791;28;20430;-87
2022/12/05 02:08:05;;;;;;;35.20;19.80;;;-4.10;99.90;;;;;;5015872;28;20489;-86
2022/12/05 02:10:36;;;;;;;44.00;20.97;;;-6.80;99.90;;;;;;5016085;28;20454;-85
2022/12/05 02:13:26;;;;;;;36.47;21.50;;;-6.10;99.90;;;;;;5015901;28;20418;-85
2022/12/05 02:16:21;;;;;;;42.83;24.70;;;-7.50;99.90;;;;;;5025006;28;20425;-87
2022/12/05 02:18:54;;;;;;;42.60;21.63;;;-6.80;99.90;;;;;;5020305;28;20443;-81
2022/12/05 02:21:46;;;;;;;49.03;23.17;;;-7.00;99.90;;;;;;5026238;28;20456;-87
2022/12/05 02:24:52;;;;;;;44.53;21.20;;;-7.00;99.90;;;;;;5039709;28;21051;-85
2022/12/05 02:27:36;;;;;;;38.73;22.13;;;-6.70;99.90;;;;;;5022037;28;20457;-88
2022/12/05 02:30:22;;;;;;;49.53;24.30;;;-6.60;99.90;;;;;;5028837;28;20446;-82
2022/12/05 02:33:00;;;;;;;47.03;23.27;;;-4.10;99.90;;;;;;5024520;28;20525;-80
2022/12/05 02:35:38;;;;;;;48.60;24.63;;;-3.70;99.90;;;;;;5018847;28;20422;-82
2022/12/05 02:38:26;;;;;;;51.10;25.43;;;-6.50;99.90;;;;;;5021526;28;20776;-79
2022/12/05 02:41:04;;;;;;;43.67;22.70;;;-4.40;99.90;;;;;;5018531;28;20496;-84
2022/12/05 02:43:37;;;;;;;53.10;25.13;;;-6.60;99.90;;;;;;5031723;28;20430;-84
2022/12/05 02:46:13;;;;;;;54.53;26.90;;;-6.50;99.90;;;;;;5028038;28;20418;-86
2022/12/05 02:48:41;;;;;;;53.57;25.33;;;-4.70;99.90;;;;;;5029233;28;20430;-83
2022/12/05 02:51:10;;;;;;;53.73;26.07;;;-6.20;99.90;;;;;;5024616;28;20450;-89
2022/12/05 02:53:38;;;;;;;51.53;24.10;;;-6.50;99.90;;;;;;5029775;28;20449;-83
2022/12/05 02:56:05;;;;;;;57.27;25.90;;;-4.40;99.90;;;;;;5038770;28;20419;-85
2022/12/05 02:58:34;;;;;;;53.97;25.43;;;-6.20;99.90;;;;;;5037208;28;20449;-89
2022/12/05 03:01:02;;;;;;;58.43;26.27;;;-4.70;99.90;;;;;;5035199;28;20433;-82
2022/12/05 03:03:29;;;;;;;52.27;25.67;;;-4.10;99.90;;;;;;5019613;28;20912;-81
2022/12/05 03:06:31;;;;;;;63.83;27.37;;;-4.60;99.90;;;;;;5018001;28;20422;-80
2022/12/05 03:09:20;;;;;;;58.33;30.77;;;-6.20;99.90;;;;;;5021410;28;20436;-75
2022/12/05 03:11:48;;;;;;;51.63;27.17;;;-3.30;99.90;;;;;;5017389;28;20462;-80
2022/12/05 03:14:29;;;;;;;54.43;26.70;;;-5.90;99.90;;;;;;5017814;28;20430;-78
2022/12/05 03:17:00;;;;;;;57.87;24.67;;;-5.40;99.90;;;;;;5017707;28;20459;-78
2022/12/05 03:19:49;;;;;;;59.23;26.97;;;-4.70;99.90;;;;;;5017697;28;20960;-84
2022/12/05 03:22:30;;;;;;;59.23;27.23;;;-4.10;99.90;;;;;;5020678;28;20437;-89
2022/12/05 03:24:57;;;;;;;57.53;26.33;;;-6.20;99.90;;;;;;5020896;28;20435;-89
2022/12/05 03:28:03;;;;;;;58.07;28.60;;;-5.60;99.90;;;;;;5024718;28;20422;-85
2022/12/05 03:30:31;;;;;;;57.97;28.43;;;-6.10;99.90;;;;;;5025087;28;20462;-88
2022/12/05 03:33:06;;;;;;;53.50;25.63;;;-5.20;99.90;;;;;;5029671;28;20451;-87
2022/12/05 03:36:06;;;;;;;47.17;25.43;;;-6.10;99.90;;;;;;5037191;28;20425;-83
2022/12/05 03:38:56;;;;;;;49.90;26.13;;;-6.40;99.90;;;;;;5043791;28;20483;-83
2022/12/05 03:41:48;;;;;;;52.27;24.97;;;-6.70;99.90;;;;;;5034895;28;20894;-80
2022/12/05 03:44:25;;;;;;;50.57;24.50;;;-6.20;99.90;;;;;;5034025;28;20430;-79
2022/12/05 03:47:00;;;;;;;47.07;24.40;;;-4.90;99.90;;;;;;5037470;28;20450;-84
2022/12/05 03:49:41;;;;;;;48.13;23.70;;;-6.20;99.90;;;;;;5033999;28;20491;-89
2022/12/05 03:52:13;;;;;;;43.97;24.73;;;-5.90;99.90;;;;;;5026678;28;20421;-77
2022/12/05 03:54:50;;;;;;;50.47;26.07;;;-6.00;99.90;;;;;;5030705;28;20583;-85
2022/12/05 03:57:19;;;;;;;52.97;25.00;;;-4.30;99.90;;;;;;5022260;28;20472;-87
2022/12/05 04:00:03;;;;;;;43.23;24.63;;;-5.20;99.90;;;;;;5021920;28;20422;-88
2022/12/05 04:03:03;;;;;;;51.10;23.33;;;-6.00;99.90;;;;;;5029439;28;20413;-84
2022/12/05 04:05:48;;;;;;;46.20;24.00;;;-5.80;99.90;;;;;;5026922;28;20542;-88
2022/12/05 04:08:35;;;;;;;39.80;21.57;;;-5.90;99.90;;;;;;5033599;28;20414;-84
2022/12/05 04:11:08;;;;;;;36.43;21.67;;;-6.30;99.90;;;;;;5038480;28;20449;-89
2022/12/05 04:13:51;;;;;;;40.93;20.83;;;-6.20;99.90;;;;;;5033034;28;20494;-84
2022/12/05 04:17:02;;;;;;;36.40;19.93;;;-6.50;99.90;;;;;;5029135;28;20430;-84
2022/12/05 04:22:22;;;;;;;42.13;22.73;;;-6.60;99.90;;;;;;5030586;28;20727;-84
2022/12/05 04:27:52;;;;;;;37.27;21.60;;;-6.20;99.90;;;;;;5022706;28;20437;-89
2022/12/05 04:30:29;;;;;;;41.37;23.47;;;-6.00;99.90;;;;;;5019497;28;20450;-85
2022/12/05 04:33:12;;;;;;;42.23;22.47;;;-5.80;99.90;;;;;;5025161;28;20525;-87
2022/12/05 04:35:48;;;;;;;39.20;22.10;;;-6.00;99.90;;;;;;5021306;28;20431;-85
2022/12/05 04:38:23;;;;;;;44.03;23.57;;;-5.90;99.90;;;;;;5016734;28;20551;-80
2022/12/05 04:40:57;;;;;;;39.07;21.97;;;-6.00;99.90;;;;;;5018701;28;20461;-83
2022/12/05 04:43:25;;;;;;;40.93;21.53;;;-6.20;99.90;;;;;;5030381;28;20427;-90
2022/12/05 04:45:53;;;;;;;47.93;23.87;;;-5.80;99.90;;;;;;5029173;28;20465;-88
2022/12/05 04:48:21;;;;;;;41.33;23.10;;;-6.10;99.90;;;;;;5016551;28;20492;-83
2022/12/05 04:50:49;;;;;;;46.90;23.83;;;-6.10;99.90;;;;;;5022302;28;20443;-84
2022/12/05 04:53:16;;;;;;;42.03;23.93;;;-5.30;99.90;;;;;;5016130;28;20542;-88
2022/12/05 04:55:47;;;;;;;40.67;22.57;;;-5.90;99.90;;;;;;5017535;28;20749;-79
2022/12/05 04:58:20;;;;;;;43.00;21.60;;;-4.50;99.90;;;;;;5016834;28;20434;-83
2022/12/05 05:01:10;;;;;;;42.33;22.93;;;-5.20;99.90;;;;;;5025147;28;20452;-84
2022/12/05 05:03:43;;;;;;;48.07;22.33;;;-5.60;99.90;;;;;;5023780;28;20572;-82
2022/12/05 05:06:13;;;;;;;40.00;21.20;;;-5.30;99.90;;;;;;5015572;28;20508;-85
2022/12/05 05:08:48;;;;;;;39.83;22.97;;;-5.10;99.90;;;;;;5024888;28;20437;-82
2022/12/05 05:11:15;;;;;;;41.73;21.57;;;-4.70;99.90;;;;;;5016216;28;20767;-85
2022/12/05 05:13:41;;;;;;;37.27;22.13;;;-5.70;99.90;;;;;;5015654;28;20506;-82
2022/12/05 05:16:12;;;;;;;35.70;21.80;;;-5.30;99.90;;;;;;5022611;28;20514;-82
2022/12/05 05:18:37;;;;;;;40.20;21.53;;;-5.80;99.90;;;;;;5015781;28;20259;-85
2022/12/05 05:21:03;;;;;;;38.63;20.60;;;-5.70;99.90;;;;;;5015740;28;20473;-80
2022/12/05 05:23:29;;;;;;;44.03;23.53;;;-5.90;99.90;;;;;;5016613;28;20185;-81
2022/12/05 05:25:55;;;;;;;49.93;26.73;;;-5.60;99.90;;;;;;5016310;28;20185;-81
2022/12/05 05:28:21;;;;;;;40.40;20.53;;;-4.20;99.90;;;;;;5022802;28;20197;-82
2022/12/05 05:30:48;;;;;;;42.93;22.33;;;-5.60;99.90;;;;;;5031177;28;20469;-76
2022/12/05 05:33:13;;;;;;;41.33;23.40;;;-6.00;99.90;;;;;;5021946;28;20775;-79
2022/12/05 05:35:39;;;;;;;50.57;24.13;;;-5.80;99.90;;;;;;5015840;28;20426;-84
2022/12/05 05:38:05;;;;;;;41.30;22.53;;;-5.30;99.90;;;;;;5019006;28;20650;-77
2022/12/05 05:40:35;;;;;;;45.23;22.90;;;-5.50;99.90;;;;;;5016269;28;20187;-80
2022/12/05 05:43:01;;;;;;;44.17;23.27;;;-5.30;99.90;;;;;;5048478;28;20500;-77
2022/12/05 05:45:26;;;;;;;44.87;21.93;;;-5.50;99.90;;;;;;5027783;28;20441;-81
2022/12/05 05:47:52;;;;;;;48.60;25.57;;;-5.80;99.90;;;;;;5023994;28;20177;-78
2022/12/05 05:50:18;;;;;;;53.67;27.40;;;-5.50;99.90;;;;;;5018287;28;20212;-82
2022/12/05 05:52:44;;;;;;;45.67;23.23;;;-4.50;99.90;;;;;;5019399;28;20188;-83
2022/12/05 05:55:10;;;;;;;43.40;21.93;;;-6.00;99.90;;;;;;5019398;28;20224;-78
2022/12/05 05:57:35;;;;;;;42.07;24.63;;;-6.10;99.90;;;;;;5019790;28;20190;-74
2022/12/05 06:00:06;;;;;;;48.33;23.33;;;-6.00;99.90;;;;;;5023636;28;20186;-75
2022/12/05 06:02:33;;;;;;;46.60;25.40;;;-6.20;99.90;;;;;;5017237;28;20173;-75
2022/12/05 06:04:59;;;;;;;44.57;24.27;;;-5.80;99.90;;;;;;5018290;28;20441;-74
2022/12/05 06:07:25;;;;;;;44.50;23.63;;;-5.80;99.90;;;;;;5018571;28;20446;-77
2022/12/05 06:09:51;;;;;;;43.63;23.13;;;-6.10;99.90;;;;;;5018478;28;20189;-74
2022/12/05 06:12:17;;;;;;;40.97;24.17;;;-6.00;99.90;;;;;;5018604;28;20476;-73
2022/12/05 06:14:42;;;;;;;45.10;23.03;;;-6.30;99.90;;;;;;5018824;28;20182;-75
2022/12/05 06:17:08;;;;;;;56.67;25.37;;;-6.20;99.90;;;;;;5019745;28;20260;-75
2022/12/05 06:19:34;;;;;;;44.27;22.33;;;-6.20;99.90;;;;;;5018369;28;20189;-79
2022/12/05 06:22:00;;;;;;;52.43;25.50;;;-6.20;99.90;;;;;;5019129;28;20181;-81
2022/12/05 06:24:26;;;;;;;41.87;23.40;;;-6.00;99.90;;;;;;5028237;28;20256;-82
2022/12/05 06:26:51;;;;;;;41.20;23.67;;;-5.90;99.90;;;;;;5018610;28;20185;-80
2022/12/05 06:29:17;;;;;;;40.93;22.33;;;-4.70;99.90;;;;;;5019108;28;20334;-77
2022/12/05 06:31:43;;;;;;;48.90;25.43;;;-6.10;99.90;;;;;;5031861;28;20231;-79
2022/12/05 06:34:08;;;;;;;55.77;27.50;;;-5.40;99.90;;;;;;5017906;28;20185;-77
2022/12/05 06:36:34;;;;;;;50.93;23.37;;;-6.20;99.90;;;;;;5017699;28;20177;-77
2022/12/05 06:39:00;;;;;;;40.00;22.70;;;-5.80;99.90;;;;;;5018069;28;20185;-79
2022/12/05 06:41:26;;;;;;;37.77;21.53;;;-6.20;99.90;;;;;;5017972;28;20242;-77
2022/12/05 06:43:57;;;;;;;46.33;22.60;;;-5.80;99.90;;;;;;5017883;28;20620;-74
2022/12/05 06:46:24;;;;;;;46.23;22.73;;;-6.40;99.90;;;;;;5017279;28;20450;-72
2022/12/05 06:48:55;;;;;;;42.33;22.60;;;-6.40;99.90;;;;;;5017855;28;20513;-71
2022/12/05 06:51:21;;;;;;;46.07;23.80;;;-6.30;99.90;;;;;;5017904;28;20918;-72
2022/12/05 06:53:47;;;;;;;44.03;22.20;;;-6.10;99.90;;;;;;5017799;28;20810;-81
2022/12/05 06:56:16;;;;;;;44.47;24.27;;;-5.80;99.90;;;;;;5017447;28;20473;-82
2022/12/05 06:58:44;;;;;;;40.30;22.87;;;-5.80;99.90;;;;;;5017493;28;20201;-81
2022/12/05 07:04:01;;;;;;;62.00;29.60;;;-5.80;99.90;;;;;;5018861;28;20453;-81
2022/12/05 07:06:27;;;;;;;54.63;28.93;;;-6.00;99.90;;;;;;5024699;28;20829;-81
2022/12/05 07:08:53;;;;;;;61.37;29.27;;;-5.20;99.90;;;;;;5029958;28;20533;-80
2022/12/05 07:11:19;;;;;;;85.90;42.73;;;-5.80;99.90;;;;;;5017901;28;20455;-83
2022/12/05 07:13:45;;;;;;;98.53;47.77;;;-6.10;99.90;;;;;;5017183;28;20502;-83
2022/12/05 07:16:11;;;;;;;77.30;39.00;;;-6.50;99.90;;;;;;5029759;28;20192;-77
2022/12/05 07:18:38;;;;;;;83.03;45.80;;;-6.20;99.90;;;;;;5017632;28;20215;-81
2022/12/05 07:21:06;;;;;;;95.20;53.10;;;-6.60;99.90;;;;;;5017754;28;20470;-81
2022/12/05 07:23:32;;;;;;;86.43;49.83;;;-6.10;99.90;;;;;;5017286;28;20548;-81
2022/12/05 07:25:58;;;;;;;108.17;62.60;;;-5.70;99.90;;;;;;5017277;28;20533;-80
2022/12/05 07:28:24;;;;;;;71.33;42.07;;;-5.80;99.90;;;;;;5017157;28;20598;-77
2022/12/05 07:31:04;;;;;;;69.83;43.37;;;-6.00;99.90;;;;;;5016854;28;20217;-78
2022/12/05 07:33:30;;;;;;;47.83;30.37;;;-6.10;99.90;;;;;;5027415;28;20917;-76
2022/12/05 07:36:05;;;;;;;43.57;24.33;;;-6.20;99.90;;;;;;5017369;28;20429;-78
2022/12/05 07:38:31;;;;;;;49.53;33.70;;;-6.50;99.90;;;;;;5017087;28;20259;-83
2022/12/05 07:40:57;;;;;;;54.87;33.63;;;-6.80;99.90;;;;;;5016995;28;20568;-78
2022/12/05 07:43:23;;;;;;;43.93;24.27;;;-6.70;99.90;;;;;;5017635;28;20526;-82
2022/12/05 07:45:49;;;;;;;42.97;25.33;;;-6.70;99.90;;;;;;5016830;28;20193;-81
2022/12/05 07:48:15;;;;;;;40.23;23.07;;;-6.70;99.90;;;;;;5016691;28;20438;-77
2022/12/05 07:50:41;;;;;;;38.50;22.90;;;-6.50;99.90;;;;;;5016774;28;20459;-76
2022/12/05 07:53:07;;;;;;;34.67;20.57;;;-6.20;99.90;;;;;;5017095;28;20711;-84
2022/12/05 07:55:32;;;;;;;38.37;23.97;;;-6.50;99.90;;;;;;5020318;28;20207;-85
2022/12/05 07:57:58;;;;;;;40.60;24.10;;;-6.50;99.90;;;;;;5016822;28;20279;-84
2022/12/05 08:00:24;;;;;;;40.93;23.70;;;-6.50;99.90;;;;;;5017018;28;20240;-83
2022/12/05 08:02:49;;;;;;;37.60;22.80;;;-6.60;99.90;;;;;;5016146;28;20217;-84
2022/12/05 08:05:15;;;;;;;38.53;21.87;;;-6.70;99.90;;;;;;5022273;28;20252;-82
2022/12/05 08:07:41;;;;;;;38.60;22.90;;;-6.70;99.90;;;;;;5016926;28;20181;-80
2022/12/05 08:10:08;;;;;;;36.70;20.47;;;-6.50;99.90;;;;;;5017403;28;20200;-86
2022/12/05 08:12:33;;;;;;;35.93;22.23;;;-6.50;99.90;;;;;;5016540;28;20190;-80
2022/12/05 08:14:59;;;;;;;34.70;20.43;;;-6.40;99.90;;;;;;5017354;28;20430;-82
2022/12/05 08:17:25;;;;;;;35.27;21.93;;;-6.50;99.90;;;;;;5017244;28;20177;-81
2022/12/05 08:19:51;;;;;;;38.00;23.00;;;-6.20;99.90;;;;;;5017134;28;20232;-82
2022/12/05 08:22:17;;;;;;;36.60;22.10;;;-5.80;99.90;;;;;;5017022;28;20461;-80
2022/12/05 08:24:42;;;;;;;34.77;19.90;;;-6.50;99.90;;;;;;5016897;28;20185;-78
2022/12/05 08:27:09;;;;;;;34.67;20.93;;;-6.80;99.90;;;;;;5016876;28;20645;-81
2022/12/05 08:29:35;;;;;;;37.33;21.37;;;-6.70;99.90;;;;;;5016961;28;20178;-83
2022/12/05 08:32:00;;;;;;;36.23;22.20;;;-7.30;99.90;;;;;;5018296;28;20466;-83
2022/12/05 08:34:26;;;;;;;35.70;21.23;;;-6.70;99.90;;;;;;5023106;28;20189;-79
2022/12/05 08:36:52;;;;;;;38.33;23.53;;;-6.70;99.90;;;;;;5022463;28;20189;-85
2022/12/05 08:39:18;;;;;;;41.33;25.53;;;-6.70;99.90;;;;;;5019296;28;20181;-83
2022/12/05 08:41:46;;;;;;;33.80;21.80;;;-6.60;99.90;;;;;;5025873;28;20185;-84
2022/12/05 08:44:17;;;;;;;38.57;22.90;;;-6.00;99.90;;;;;;5016238;28;20537;-81
2022/12/05 08:46:45;;;;;;;34.00;21.20;;;-6.60;99.90;;;;;;5009066;28;20431;-82
2022/12/05 08:49:11;;;;;;;45.00;22.57;;;-6.80;99.90;;;;;;5015596;28;20445;-84
2022/12/05 08:51:37;;;;;;;44.30;22.37;;;-6.60;99.90;;;;;;5016721;28;20524;-86
2022/12/05 08:54:04;;;;;;;35.17;20.63;;;-6.50;99.90;;;;;;5015570;28;20458;-77
2022/12/05 08:56:31;;;;;;;31.63;18.30;;;-6.60;99.90;;;;;;5015711;28;20343;-73
2022/12/05 08:58:58;;;;;;;36.37;20.37;;;-6.70;99.90;;;;;;5015351;28;20444;-73
2022/12/05 09:01:29;;;;;;;30.30;17.77;;;-6.80;99.90;;;;;;5015783;28;20435;-76
2022/12/05 09:03:55;;;;;;;34.20;19.27;;;-7.00;99.90;;;;;;5015552;28;20739;-74
2022/12/05 09:06:23;;;;;;;35.00;20.27;;;-7.20;99.90;;;;;;5025171;28;20443;-76
2022/12/05 09:08:52;;;;;;;32.73;19.50;;;-6.10;99.90;;;;;;5029136;28;20443;-74
2022/12/05 09:11:24;;;;;;;32.43;17.73;;;-7.10;99.90;;;;;;5015731;28;20517;-77
2022/12/05 09:13:51;;;;;;;31.67;18.37;;;-7.10;99.90;;;;;;5015995;28;20445;-77
2022/12/05 09:16:21;;;;;;;28.10;17.73;;;-7.40;99.90;;;;;;5029158;28;20474;-73
2022/12/05 09:18:48;;;;;;;34.03;20.90;;;-7.10;99.90;;;;;;5015857;28;20435;-76
2022/12/05 09:21:20;;;;;;;29.60;20.13;;;-6.60;99.90;;;;;;5016345;28;20745;-76
2022/12/05 09:23:46;;;;;;;29.00;19.47;;;-7.30;99.90;;;;;;5020139;28;20493;-78
2022/12/05 09:26:15;;;;;;;30.23;19.17;;;-7.40;99.90;;;;;;5016308;28;20435;-90
2022/12/05 09:28:43;;;;;;;39.47;22.77;;;-7.30;99.90;;;;;;5015834;28;20431;-74
2022/12/05 09:31:12;;;;;;;36.20;18.23;;;-7.00;99.90;;;;;;5028527;28;20528;-74
2022/12/05 09:33:38;;;;;;;30.67;18.43;;;-5.70;99.90;;;;;;5015953;28;20422;-75
2022/12/05 09:36:06;;;;;;;31.70;20.97;;;-7.00;99.90;;;;;;5015558;28;20431;-72
2022/12/05 09:38:32;;;;;;;46.67;30.10;;;-7.30;99.90;;;;;;5021579;28;20438;-74
2022/12/05 09:41:14;;;;;;;34.47;21.53;;;-7.20;99.90;;;;;;5019041;28;20741;-74
2022/12/05 09:44:04;;;;;;;42.53;26.70;;;-6.60;99.90;;;;;;5016258;28;20192;-75
2022/12/05 09:46:55;;;;;;;31.17;21.27;;;-6.70;99.90;;;;;;5015300;28;20866;-73
2022/12/05 09:49:23;;;;;;;114.03;70.43;;;-6.80;99.90;;;;;;5020289;28;20426;-74
2022/12/05 09:51:51;;;;;;;38.00;25.83;;;-7.10;99.90;;;;;;5027835;28;20459;-75
2022/12/05 09:54:17;;;;;;;32.37;19.70;;;-5.80;99.90;;;;;;5028390;28;20460;-74
2022/12/05 09:56:44;;;;;;;39.40;22.03;;;-7.00;99.90;;;;;;5015550;28;20433;-73
2022/12/05 09:59:15;;;;;;;25.90;18.70;;;-6.20;99.90;;;;;;5018504;28;20445;-77
2022/12/05 10:01:45;;;;;;;26.60;17.53;;;-6.60;99.90;;;;;;5015239;28;20426;-74
2022/12/05 10:04:17;;;;;;;30.53;19.00;;;-6.50;99.90;;;;;;5014979;28;20477;-74
2022/12/05 10:07:00;;;;;;;29.53;19.10;;;-7.00;99.90;;;;;;5024074;28;20466;-78
2022/12/05 10:09:39;;;;;;;24.73;15.87;;;-7.10;99.90;;;;;;5014507;28;20476;-76
2022/12/05 10:12:36;;;;;;;24.73;15.57;;;-6.80;99.90;;;;;;5015257;28;20476;-73
2022/12/05 10:15:12;;;;;;;25.90;16.77;;;-6.70;99.90;;;;;;5025252;28;20497;-75
2022/12/05 10:17:43;;;;;;;26.13;16.80;;;-6.80;99.90;;;;;;5015687;28;20460;-76
2022/12/05 10:20:16;;;;;;;22.23;14.90;;;-7.00;99.90;;;;;;5015477;28;20506;-72
2022/12/05 10:22:55;;;;;;;21.67;15.03;;;-6.90;99.90;;;;;;5015042;28;20517;-73
2022/12/05 10:25:22;;;;;;;22.03;17.20;;;-6.50;99.90;;;;;;5014378;28;20437;-73
2022/12/05 10:27:55;;;;;;;21.20;16.30;;;-6.70;99.90;;;;;;5015795;28;20438;-74
2022/12/05 10:30:23;;;;;;;20.47;16.03;;;-6.70;99.90;;;;;;5014683;28;20898;-74
2022/12/05 10:32:54;;;;;;;23.53;18.20;;;-6.90;99.90;;;;;;5014934;28;20430;-75
2022/12/05 10:35:32;;;;;;;28.83;20.03;;;-7.30;99.90;;;;;;5014784;28;20430;-74
2022/12/05 10:38:11;;;;;;;22.80;18.87;;;-7.00;99.90;;;;;;5026449;28;20438;-73
2022/12/05 10:40:44;;;;;;;24.60;20.33;;;-5.30;99.90;;;;;;5023596;28;20430;-76
2022/12/05 10:43:15;;;;;;;21.30;16.90;;;-6.70;99.90;;;;;;5026058;28;20485;-73
2022/12/05 10:45:44;;;;;;;20.23;18.10;;;-7.30;99.90;;;;;;5025120;28;20510;-74
2022/12/05 10:48:14;;;;;;;21.37;18.40;;;-6.90;99.90;;;;;;5018290;28;20858;-73
2022/12/05 10:50:42;;;;;;;19.23;16.90;;;-6.90;99.90;;;;;;5018995;28;20466;-74
2022/12/05 10:53:14;;;;;;;20.80;17.10;;;-6.90;99.90;;;;;;5030691;28;20435;-88
2022/12/05 10:55:42;;;;;;;19.43;16.27;;;-6.70;99.90;;;;;;5022095;28;20986;-85
2022/12/05 10:58:14;;;;;;;21.47;15.90;;;-6.60;99.90;;;;;;5027024;28;20488;-88
2022/12/05 11:00:45;;;;;;;25.47;15.67;;;-6.80;99.90;;;;;;5024686;28;20461;-86
2022/12/05 11:03:32;;;;;;;16.30;12.40;;;-6.40;99.90;;;;;;5024198;28;20447;-85
2022/12/05 11:06:15;;;;;;;20.53;16.67;;;-7.30;99.90;;;;;;5025202;28;20435;-75
2022/12/05 11:08:41;;;;;;;20.00;14.03;;;-7.20;99.90;;;;;;5018361;28;20431;-85
2022/12/05 11:11:13;;;;;;;20.30;14.80;;;-5.90;99.90;;;;;;5021671;28;20461;-73
2022/12/05 11:13:54;;;;;;;19.10;14.97;;;-6.90;99.90;;;;;;5026657;28;20236;-75
2022/12/05 11:16:31;;;;;;;17.63;13.57;;;-6.70;99.90;;;;;;5028578;28;20476;-74
2022/12/05 11:19:20;;;;;;;19.33;14.33;;;-6.60;99.90;;;;;;5030229;28;20494;-73
2022/12/05 11:21:46;;;;;;;21.50;17.43;;;-6.80;99.90;;;;;;5030530;28;20860;-74
2022/12/05 11:24:29;;;;;;;20.40;16.07;;;-7.20;99.90;;;;;;5026304;28;20454;-75
2022/12/05 11:26:57;;;;;;;20.43;14.90;;;-8.20;99.90;;;;;;5032644;28;20453;-76
2022/12/05 11:29:37;;;;;;;19.67;14.87;;;-7.70;99.90;;;;;;5050616;28;20439;-78
2022/12/05 11:32:05;;;;;;;16.17;13.37;;;-8.70;99.90;;;;;;5040679;28;20457;-90
2022/12/05 11:34:47;;;;;;;18.07;11.93;;;-8.70;99.90;;;;;;5022353;28;20478;-88
2022/12/05 11:37:21;;;;;;;14.90;12.37;;;-8.90;99.90;;;;;;5019247;28;20463;-81
2022/12/05 11:39:47;;;;;;;16.33;12.70;;;-8.20;99.90;;;;;;5018706;28;20458;-86
2022/12/05 11:42:32;;;;;;;16.00;12.10;;;-8.90;99.90;;;;;;5025473;28;20890;-78
2022/12/05 11:45:28;;;;;;;13.60;11.27;;;-8.60;99.90;;;;;;5023147;28;20183;-75
2022/12/05 11:48:05;;;;;;;11.73;10.60;;;-8.40;99.90;;;;;;5020371;28;20428;-78
2022/12/05 11:51:06;;;;;;;13.90;10.50;;;-8.90;99.90;;;;;;5022554;28;20447;-80
2022/12/05 11:53:34;;;;;;;13.40;11.80;;;-8.10;99.90;;;;;;5013071;28;20739;-87
2022/12/05 11:56:03;;;;;;;16.00;12.77;;;-7.70;99.90;;;;;;5019840;28;20443;-88
2022/12/05 11:58:47;;;;;;;12.27;10.13;;;-7.20;99.90;;;;;;5019254;28;20419;-81
2022/12/05 12:01:33;;;;;;;14.70;11.07;;;-7.50;99.90;;;;;;5019145;28;20518;-83
2022/12/05 12:04:44;;;;;;;14.63;10.83;;;-8.10;99.90;;;;;;5021363;28;20484;-83
2022/12/05 12:07:33;;;;;;;12.77;11.47;;;-7.40;99.90;;;;;;5017714;28;20438;-74
2022/12/05 12:10:13;;;;;;;12.87;9.97;;;-8.30;99.90;;;;;;5030913;28;20717;-83
2022/12/05 12:12:51;;;;;;;18.97;12.63;;;-7.90;99.90;;;;;;5018874;28;20438;-79
2022/12/05 12:15:37;;;;;;;14.50;12.67;;;-7.70;99.90;;;;;;5018576;28;20421;-73
2022/12/05 12:18:05;;;;;;;19.73;11.77;;;-7.40;99.90;;;;;;5048964;28;20441;-74
2022/12/05 12:20:38;;;;;;;13.80;12.10;;;-7.20;99.90;;;;;;5023004;28;20441;-73
2022/12/05 12:23:19;;;;;;;14.63;13.13;;;-7.20;99.90;;;;;;5016796;28;20429;-80
2022/12/05 12:25:57;;;;;;;15.97;14.30;;;-7.10;99.90;;;;;;5016628;28;20439;-76
2022/12/05 12:29:00;;;;;;;14.07;12.57;;;-7.10;99.90;;;;;;5017499;28;20437;-75
2022/12/05 12:31:39;;;;;;;14.60;12.60;;;-7.10;99.90;;;;;;5026981;28;20489;-73
2022/12/05 12:34:27;;;;;;;15.80;10.43;;;-7.10;99.90;;;;;;5017087;28;20418;-74
2022/12/05 12:37:25;;;;;;;12.80;10.07;;;-7.20;99.90;;;;;;5016451;28;20998;-74
2022/12/05 12:40:34;;;;;;;13.93;10.60;;;-7.00;99.90;;;;;;5016485;28;20431;-73
2022/12/05 12:43:36;;;;;;;13.77;10.40;;;-7.20;99.90;;;;;;5023465;28;20450;-74
2022/12/05 12:46:14;;;;;;;12.73;9.67;;;-6.90;99.90;;;;;;5024944;28;20890;-74
2022/12/05 12:49:06;;;;;;;14.63;13.20;;;-6.00;99.90;;;;;;5015977;28;20427;-74
2022/12/05 12:51:32;;;;;;;21.03;19.13;;;-6.30;99.90;;;;;;5017474;28;20478;-73
2022/12/05 12:54:21;;;;;;;13.73;12.33;;;-5.00;99.90;;;;;;5029081;28;20447;-75
2022/12/05 12:56:48;;;;;;;12.67;11.20;;;-6.00;99.90;;;;;;5024060;28;20440;-74
2022/12/05 12:59:38;;;;;;;13.23;11.77;;;-6.10;99.90;;;;;;5024678;28;20423;-73
2022/12/05 13:02:21;;;;;;;17.53;12.20;;;-5.90;99.90;;;;;;5015840;28;20529;-74
2022/12/05 13:05:08;;;;;;;15.93;10.93;;;-6.40;99.90;;;;;;5015447;28;20522;-74